createdAt,value
2018-02-10T00:00:37.117Z,99792.80
2018-02-10T00:03:04.683Z,99803.19
2018-02-10T00:05:32.291Z,99801.72
2018-02-10T00:07:59.856Z,99796.04
2018-02-10T00:10:27.577Z,99790.41
2018-02-10T00:12:55.181Z,99796.08
2018-02-10T00:15:22.750Z,99800.25
2018-02-10T00:17:50.323Z,99807.00
2018-02-10T00:20:17.908Z,99796.30
2018-02-10T00:22:48.408Z,99787.98
2018-02-10T00:25:15.968Z,99775.75
2018-02-10T00:27:43.565Z,99767.64
2018-02-10T00:30:11.132Z,99757.74
2018-02-10T00:32:38.699Z,99759.17
2018-02-10T00:35:06.291Z,99752.03
2018-02-10T00:37:33.838Z,99747.31
2018-02-10T00:40:01.399Z,99763.77
2018-02-10T00:42:29.095Z,99762.77
2018-02-10T00:44:56.655Z,99764.42
2018-02-10T00:47:24.238Z,99760.28
2018-02-10T00:49:51.856Z,99759.75
2018-02-10T00:52:19.424Z,99764.13
2018-02-10T00:54:47.160Z,99748.45
2018-02-10T00:57:14.763Z,99747.27
2018-02-10T00:59:42.457Z,99746.59
2018-02-10T01:02:10.044Z,99740.50
2018-02-10T01:04:37.651Z,99733.53
2018-02-10T01:07:05.211Z,99728.86
2018-02-10T01:09:32.776Z,99738.53
2018-02-10T01:12:00.389Z,99739.27
2018-02-10T01:14:27.970Z,99738.78
2018-02-10T01:16:55.539Z,99735.39
2018-02-10T01:19:23.141Z,99734.41
2018-02-10T01:21:50.728Z,99737.95
2018-02-10T01:24:18.295Z,99738.44
2018-02-10T01:26:46.120Z,99738.41
2018-02-10T01:29:13.685Z,99730.73
2018-02-10T01:31:41.436Z,99738.92
2018-02-10T01:34:09.055Z,99728.35
2018-02-10T01:36:36.766Z,99725.97
2018-02-10T01:39:04.397Z,99723.67
2018-02-10T01:41:32.002Z,99728.70
2018-02-10T01:43:59.574Z,99728.16
2018-02-10T01:46:27.228Z,99735.75
2018-02-10T01:48:54.835Z,99742.37
2018-02-10T01:51:22.413Z,99740.41
2018-02-10T01:53:49.992Z,99745.62
2018-02-10T01:56:17.605Z,99742.20
2018-02-10T01:58:45.171Z,99743.30
2018-02-10T02:01:12.976Z,99743.06
2018-02-10T02:03:40.576Z,99745.26
2018-02-10T02:06:08.147Z,99749.67
2018-02-10T02:08:35.708Z,99746.97
2018-02-10T02:11:03.329Z,99745.29
2018-02-10T02:13:31.085Z,99741.16
2018-02-10T02:15:58.661Z,99747.09
2018-02-10T02:18:32.347Z,99748.14
2018-02-10T02:20:59.909Z,99743.15
2018-02-10T02:23:27.689Z,99746.88
2018-02-10T02:25:55.277Z,99748.95
2018-02-10T02:28:22.993Z,99753.02
2018-02-10T02:30:50.559Z,99748.46
2018-02-10T02:33:18.329Z,99750.39
2018-02-10T02:35:45.905Z,99749.83
2018-02-10T02:38:13.468Z,99759.88
2018-02-10T02:40:41.084Z,99750.86
2018-02-10T02:43:08.781Z,99751.80
2018-02-10T02:45:36.429Z,99744.39
2018-02-10T02:48:04.275Z,99749.45
2018-02-10T02:50:31.844Z,99745.80
2018-02-10T02:52:59.411Z,99735.53
2018-02-10T02:55:27.087Z,99729.16
2018-02-10T02:57:54.741Z,99724.83
2018-02-10T03:00:22.398Z,99725.59
2018-02-10T03:02:50.079Z,99728.46
2018-02-10T03:05:17.641Z,99718.98
2018-02-10T03:07:45.203Z,99730.12
2018-02-10T03:10:12.790Z,99734.92
2018-02-10T03:12:40.516Z,99740.29
2018-02-10T03:15:08.185Z,99749.95
2018-02-10T03:17:35.792Z,99746.34
2018-02-10T03:20:03.361Z,99753.47
2018-02-10T03:22:30.922Z,99745.56
2018-02-10T03:24:58.519Z,99746.62
2018-02-10T03:27:26.085Z,99750.63
2018-02-10T03:29:53.633Z,99737.87
2018-02-10T03:32:21.401Z,99740.68
2018-02-10T03:34:49.060Z,99731.51
2018-02-10T03:37:16.617Z,99743.05
2018-02-10T03:39:44.383Z,99738.53
2018-02-10T03:42:12.012Z,99737.27
2018-02-10T03:44:39.621Z,99732.06
2018-02-10T03:47:07.236Z,99729.44
2018-02-10T03:49:34.810Z,99726.92
2018-02-10T03:52:02.407Z,99728.59
2018-02-10T03:54:30.008Z,99718.87
2018-02-10T03:56:57.594Z,99720.23
2018-02-10T03:59:25.171Z,99712.72
2018-02-10T04:01:52.931Z,99711.52
2018-02-10T04:04:20.610Z,99704.95
2018-02-10T04:06:48.183Z,99701.36
2018-02-10T04:09:15.777Z,99700.61
2018-02-10T04:11:43.354Z,99697.11
2018-02-10T04:14:11.040Z,99706.25
2018-02-10T04:16:38.650Z,99707.95
2018-02-10T04:19:06.212Z,99720.38
2018-02-10T04:21:33.873Z,99729.63
2018-02-10T04:24:01.500Z,99729.46
2018-02-10T04:26:29.113Z,99727.39
2018-02-10T04:28:56.830Z,99729.65
2018-02-10T04:31:24.427Z,99728.55
2018-02-10T04:33:52.007Z,99718.21
2018-02-10T04:36:19.593Z,99712.61
2018-02-10T04:38:47.190Z,99716.56
2018-02-10T04:41:14.765Z,99709.92
2018-02-10T04:43:42.335Z,99708.23
2018-02-10T04:46:10.034Z,99713.32
2018-02-10T04:48:37.918Z,99722.80
2018-02-10T04:51:05.573Z,99720.11
2018-02-10T04:53:33.180Z,99730.30
2018-02-10T04:56:00.846Z,99727.52
2018-02-10T04:58:28.426Z,99730.84
2018-02-10T05:00:56.067Z,99720.30
2018-02-10T05:03:24.024Z,99719.45
2018-02-10T05:05:51.800Z,99728.84
2018-02-10T05:08:19.617Z,99724.31
2018-02-10T05:10:47.234Z,99713.14
2018-02-10T05:13:14.793Z,99711.62
2018-02-10T05:15:42.358Z,99717.30
2018-02-10T05:18:09.937Z,99719.91
2018-02-10T05:20:37.502Z,99721.39
2018-02-10T05:23:05.117Z,99723.25
2018-02-10T05:25:32.704Z,99724.32
2018-02-10T05:28:00.343Z,99725.56
2018-02-10T05:30:27.955Z,99732.86
2018-02-10T05:32:55.502Z,99729.77
2018-02-10T05:35:23.402Z,99729.23
2018-02-10T05:37:50.996Z,99732.33
2018-02-10T05:40:18.566Z,99731.41
2018-02-10T05:42:46.277Z,99733.80
2018-02-10T05:45:13.889Z,99734.80
2018-02-10T05:47:41.441Z,99728.35
2018-02-10T05:50:09.008Z,99743.83
2018-02-10T05:52:36.712Z,99750.91
2018-02-10T05:55:04.292Z,99748.36
2018-02-10T05:57:31.871Z,99748.06
2018-02-10T05:59:59.463Z,99746.16
2018-02-10T06:02:27.073Z,99745.59
2018-02-10T06:04:54.643Z,99736.88
2018-02-10T06:07:22.480Z,99741.66
2018-02-10T06:09:50.047Z,99743.82
2018-02-10T06:12:17.612Z,99752.66
2018-02-10T06:14:45.228Z,99750.10
2018-02-10T06:17:12.929Z,99754.79
2018-02-10T06:19:40.593Z,99753.60
2018-02-10T06:22:08.186Z,99758.25
2018-02-10T06:24:35.790Z,99755.05
2018-02-10T06:27:03.338Z,99748.44
2018-02-10T06:29:30.967Z,99749.39
2018-02-10T06:31:58.532Z,99750.72
2018-02-10T06:34:26.222Z,99752.22
2018-02-10T06:36:53.909Z,99751.48
2018-02-10T06:39:21.481Z,99750.42
2018-02-10T06:41:49.155Z,99743.55
2018-02-10T06:44:16.803Z,99746.27
2018-02-10T06:46:44.383Z,99742.89
2018-02-10T06:49:11.956Z,99746.02
2018-02-10T06:51:39.567Z,99742.37
2018-02-10T06:54:07.257Z,99730.44
2018-02-10T06:56:34.833Z,99744.59
2018-02-10T06:59:02.584Z,99745.80
2018-02-10T07:01:30.166Z,99746.30
2018-02-10T07:03:57.753Z,99743.64
2018-02-10T07:06:25.377Z,99735.23
2018-02-10T07:08:53.031Z,99731.17
2018-02-10T07:11:20.695Z,99733.91
2018-02-10T07:13:48.356Z,99732.36
2018-02-10T07:16:16.013Z,99737.70
2018-02-10T07:18:43.670Z,99733.91
2018-02-10T07:21:11.306Z,99731.08
2018-02-10T07:23:38.871Z,99725.08
2018-02-10T07:26:06.443Z,99727.34
2018-02-10T07:28:34.067Z,99725.22
2018-02-10T07:31:01.649Z,99722.80
2018-02-10T07:33:29.219Z,99720.53
2018-02-10T07:35:56.831Z,99725.06
2018-02-10T07:38:24.396Z,99719.38
2018-02-10T07:40:51.962Z,99716.37
2018-02-10T07:43:19.671Z,99711.20
2018-02-10T07:45:47.244Z,99713.88
2018-02-10T07:48:14.828Z,99716.32
2018-02-10T07:50:43.476Z,99721.13
2018-02-10T07:53:11.158Z,99726.47
2018-02-10T07:55:39.131Z,99724.27
2018-02-10T07:58:06.842Z,99720.20
2018-02-10T08:00:34.787Z,99722.58
2018-02-10T08:03:02.396Z,99722.36
2018-02-10T08:05:30.033Z,99721.91
2018-02-10T08:07:57.617Z,99719.29
2018-02-10T08:10:25.201Z,99708.93
2018-02-10T08:12:52.806Z,99709.41
2018-02-10T08:15:20.383Z,99703.06
2018-02-10T08:17:48.246Z,99700.93
2018-02-10T08:20:15.852Z,99708.98
2018-02-10T08:22:43.467Z,99692.84
2018-02-10T08:25:11.175Z,99696.15
2018-02-10T08:27:38.787Z,99680.92
2018-02-10T08:30:06.366Z,99668.31
2018-02-10T08:32:33.944Z,99670.99
2018-02-10T08:35:01.811Z,99663.98
2018-02-10T08:37:29.405Z,99662.23
2018-02-10T08:39:56.992Z,99662.86
2018-02-10T08:42:24.602Z,99660.80
2018-02-10T08:44:52.204Z,99658.68
2018-02-10T08:47:19.994Z,99650.78
2018-02-10T08:49:47.737Z,99646.35
2018-02-10T08:52:15.319Z,99640.89
2018-02-10T08:54:43.195Z,99633.73
2018-02-10T08:57:10.850Z,99627.19
2018-02-10T08:59:38.621Z,99629.31
2018-02-10T09:02:06.303Z,99630.22
2018-02-10T09:04:33.912Z,99619.42
2018-02-10T09:07:01.781Z,99614.27
2018-02-10T09:09:29.701Z,99615.48
2018-02-10T09:11:57.409Z,99610.53
2018-02-10T09:14:24.991Z,99605.03
2018-02-10T09:16:52.576Z,99603.53
2018-02-10T09:19:20.204Z,99596.95
2018-02-10T09:21:47.800Z,99598.84
2018-02-10T09:24:15.478Z,99593.45
2018-02-10T09:26:43.133Z,99601.48
2018-02-10T09:29:10.727Z,99590.52
2018-02-10T09:31:38.312Z,99590.84
2018-02-10T09:34:05.936Z,99582.39
2018-02-10T09:36:33.523Z,99582.45
2018-02-10T09:39:01.107Z,99579.90
2018-02-10T09:41:28.905Z,99572.94
2018-02-10T09:43:58.178Z,99569.00
2018-02-10T09:46:26.148Z,99557.38
2018-02-10T09:48:53.754Z,99556.09
2018-02-10T09:51:21.505Z,99550.01
2018-02-10T09:53:49.348Z,99541.12
2018-02-10T09:56:17.025Z,99539.81
2018-02-10T09:58:44.701Z,99539.95
2018-02-10T10:01:12.278Z,99547.24
2018-02-10T10:03:39.892Z,99536.93
2018-02-10T10:06:07.462Z,99530.61
2018-02-10T10:08:35.042Z,99533.80
2018-02-10T10:11:02.804Z,99537.30
2018-02-10T10:13:30.371Z,99522.89
2018-02-10T10:15:57.939Z,99516.84
2018-02-10T10:18:25.577Z,99519.08
2018-02-10T10:20:53.358Z,99517.36
2018-02-10T10:23:20.975Z,99506.13
2018-02-10T10:25:49.380Z,99500.08
2018-02-10T10:28:17.046Z,99496.28
2018-02-10T10:30:44.646Z,99493.72
2018-02-10T10:33:12.295Z,99489.16
2018-02-10T10:35:39.862Z,99486.12
2018-02-10T10:38:07.489Z,99496.23
2018-02-10T10:40:35.112Z,99491.05
2018-02-10T10:43:03.030Z,99487.34
2018-02-10T10:45:30.595Z,99480.48
2018-02-10T10:47:58.635Z,99485.19
2018-02-10T10:50:26.426Z,99477.91
2018-02-10T10:52:54.003Z,99481.63
2018-02-10T10:55:21.591Z,99482.40
2018-02-10T10:57:49.220Z,99479.88
2018-02-10T11:00:18.711Z,99475.04
2018-02-10T11:02:46.308Z,99458.98
2018-02-10T11:05:14.017Z,99466.65
2018-02-10T11:07:41.904Z,99467.85
2018-02-10T11:10:09.496Z,99462.41
2018-02-10T11:12:37.125Z,99461.89
2018-02-10T11:15:04.712Z,99454.86
2018-02-10T11:17:32.299Z,99453.84
2018-02-10T11:20:00.085Z,99454.23
2018-02-10T11:22:27.667Z,99450.70
2018-02-10T11:24:55.239Z,99449.09
2018-02-10T11:27:22.856Z,99442.28
2018-02-10T11:29:50.423Z,99434.19
2018-02-10T11:32:17.999Z,99432.40
2018-02-10T11:34:45.652Z,99426.38
2018-02-10T11:37:13.331Z,99431.45
2018-02-10T11:39:41.003Z,99425.98
2018-02-10T11:42:08.626Z,99412.61
2018-02-10T11:44:36.322Z,99413.40
2018-02-10T11:47:03.986Z,99411.64
2018-02-10T11:49:31.586Z,99401.84
2018-02-10T11:51:59.302Z,99399.48
2018-02-10T11:54:26.891Z,99390.68
2018-02-10T11:56:54.585Z,99378.27
2018-02-10T11:59:22.224Z,99380.50
2018-02-10T12:01:49.834Z,99368.34
2018-02-10T12:04:17.430Z,99367.26
2018-02-10T12:06:45.138Z,99366.56
2018-02-10T12:09:12.688Z,99365.20
2018-02-10T12:11:40.406Z,99358.34
2018-02-10T12:14:08.056Z,99365.55
2018-02-10T12:16:35.633Z,99353.36
2018-02-10T12:19:03.267Z,99362.83
2018-02-10T12:21:30.844Z,99367.44
2018-02-10T12:23:58.434Z,99365.20
2018-02-10T12:26:26.048Z,99364.45
2018-02-10T12:28:54.094Z,99356.33
2018-02-10T12:31:21.691Z,99354.63
2018-02-10T12:33:49.356Z,99357.38
2018-02-10T12:36:17.031Z,99360.02
2018-02-10T12:38:44.670Z,99350.34
2018-02-10T12:41:12.275Z,99347.73
2018-02-10T12:43:39.832Z,99342.75
2018-02-10T12:46:07.658Z,99338.58
2018-02-10T12:48:40.887Z,99341.84
2018-02-10T12:51:08.526Z,99339.89
2018-02-10T12:53:36.129Z,99325.66
2018-02-10T12:56:03.751Z,99341.17
2018-02-10T12:58:31.358Z,99335.97
2018-02-10T13:00:59.999Z,99331.19
2018-02-10T13:03:27.676Z,99316.46
2018-02-10T13:05:55.337Z,99318.84
2018-02-10T13:08:22.937Z,99324.50
2018-02-10T13:10:50.544Z,99313.40
2018-02-10T13:13:18.152Z,99316.09
2018-02-10T13:15:45.713Z,99309.55
2018-02-10T13:18:13.788Z,99324.82
2018-02-10T13:20:41.378Z,99308.27
2018-02-10T13:23:09.152Z,99310.52
2018-02-10T13:25:36.745Z,99311.41
2018-02-10T13:28:04.345Z,99302.23
2018-02-10T13:30:31.938Z,99294.13
2018-02-10T13:32:59.511Z,99289.73
2018-02-10T13:35:27.105Z,99293.20
2018-02-10T13:37:54.688Z,99301.13
2018-02-10T13:40:22.386Z,99293.41
2018-02-10T13:42:49.946Z,99297.80
2018-02-10T13:45:17.717Z,99300.08
2018-02-10T13:47:45.375Z,99300.56
2018-02-10T13:50:12.935Z,99298.45
2018-02-10T13:52:40.502Z,99301.70
2018-02-10T13:55:08.112Z,99301.75
2018-02-10T13:57:35.684Z,99302.74
2018-02-10T14:00:03.242Z,99300.58
2018-02-10T14:02:30.838Z,99294.00
2018-02-10T14:04:59.273Z,99303.27
2018-02-10T14:07:26.826Z,99306.13
2018-02-10T14:09:54.459Z,99308.20
2018-02-10T14:12:22.035Z,99309.62
2018-02-10T14:14:49.661Z,99316.05
2018-02-10T14:17:17.245Z,99318.63
2018-02-10T14:19:44.797Z,99324.92
2018-02-10T14:22:12.338Z,99316.75
2018-02-10T14:24:39.913Z,99321.61
2018-02-10T14:27:07.475Z,99330.98
2018-02-10T14:29:35.028Z,99325.22
2018-02-10T14:32:02.619Z,99327.83
2018-02-10T14:34:30.194Z,99323.24
2018-02-10T14:36:57.756Z,99327.26
2018-02-10T14:39:25.473Z,99329.19
2018-02-10T14:41:53.046Z,99332.68
2018-02-10T14:44:20.790Z,99327.34
2018-02-10T14:46:48.385Z,99327.08
2018-02-10T14:49:15.952Z,99331.41
2018-02-10T14:51:43.514Z,99328.67
2018-02-10T14:54:11.116Z,99323.86
2018-02-10T14:56:38.698Z,99321.89
2018-02-10T14:59:06.339Z,99316.08
2018-02-10T15:01:33.939Z,99313.98
2018-02-10T15:04:01.489Z,99308.59
2018-02-10T15:06:29.069Z,99313.17
2018-02-10T15:08:56.695Z,99316.16
2018-02-10T15:11:24.284Z,99306.63
2018-02-10T15:13:51.847Z,99306.11
2018-02-10T15:16:19.464Z,99305.22
2018-02-10T15:18:47.026Z,99300.62
2018-02-10T15:21:14.583Z,99303.51
2018-02-10T15:23:42.176Z,99298.42
2018-02-10T15:26:09.771Z,99301.28
2018-02-10T15:28:37.325Z,99291.97
2018-02-10T15:31:16.823Z,99293.49
2018-02-10T15:33:56.156Z,99294.77
2018-02-10T15:36:23.802Z,99297.16
2018-02-10T15:38:51.387Z,99295.02
2018-02-10T15:41:18.967Z,99302.62
2018-02-10T15:43:46.601Z,99301.61
2018-02-10T15:46:14.178Z,99306.22
2018-02-10T15:48:41.926Z,99298.31
2018-02-10T15:51:09.542Z,99304.99
2018-02-10T15:53:37.110Z,99300.68
2018-02-10T15:56:04.913Z,99299.76
2018-02-10T15:58:32.502Z,99298.13
2018-02-10T16:01:00.217Z,99293.03
2018-02-10T16:03:27.804Z,99291.31
2018-02-10T16:05:55.560Z,99293.05
2018-02-10T16:08:23.138Z,99288.72
2018-02-10T16:10:50.699Z,99292.92
2018-02-10T16:13:18.297Z,99296.42
2018-02-10T16:15:45.871Z,99302.56
2018-02-10T16:18:13.449Z,99303.29
2018-02-10T16:20:41.056Z,99301.66
2018-02-10T16:23:08.627Z,99301.34
2018-02-10T16:25:36.456Z,99296.31
2018-02-10T16:28:04.069Z,99299.40
2018-02-10T16:30:31.776Z,99291.62
2018-02-10T16:32:59.375Z,99291.81
2018-02-10T16:35:27.094Z,99290.39
2018-02-10T16:37:54.673Z,99283.63
2018-02-10T16:40:22.415Z,99291.92
2018-02-10T16:42:50.024Z,99280.55
2018-02-10T16:45:17.603Z,99284.25
2018-02-10T16:47:45.163Z,99277.57
2018-02-10T16:50:12.765Z,99268.45
2018-02-10T16:52:40.329Z,99265.28
2018-02-10T16:55:07.889Z,99257.08
2018-02-10T16:57:35.504Z,99258.20
2018-02-10T17:00:03.105Z,99264.46
2018-02-10T17:02:30.966Z,99263.63
2018-02-10T17:04:58.597Z,99260.56
2018-02-10T17:07:26.167Z,99255.13
2018-02-10T17:09:53.749Z,99253.51
2018-02-10T17:12:21.353Z,99254.61
2018-02-10T17:14:48.919Z,99248.98
2018-02-10T17:17:16.476Z,99248.28
2018-02-10T17:19:44.176Z,99242.23
2018-02-10T17:22:11.865Z,99236.28
2018-02-10T17:24:39.431Z,99231.36
2018-02-10T17:27:07.045Z,99226.46
2018-02-10T17:29:34.640Z,99233.00
2018-02-10T17:32:02.231Z,99228.89
2018-02-10T17:34:29.837Z,99218.15
2018-02-10T17:36:57.424Z,99226.25
2018-02-10T17:39:25.039Z,99222.46
2018-02-10T17:41:52.661Z,99217.53
2018-02-10T17:44:20.238Z,99223.05
2018-02-10T17:46:47.865Z,99219.08
2018-02-10T17:49:15.476Z,99219.59
2018-02-10T17:51:43.059Z,99217.55
2018-02-10T17:54:10.619Z,99206.05
2018-02-10T17:56:38.240Z,99205.77
2018-02-10T17:59:05.837Z,99205.56
2018-02-10T18:01:33.417Z,99200.65
2018-02-10T18:04:01.046Z,99192.66
2018-02-10T18:06:28.762Z,99196.02
2018-02-10T18:08:56.394Z,99179.65
2018-02-10T18:11:24.010Z,99183.73
2018-02-10T18:13:51.749Z,99184.44
2018-02-10T18:16:19.457Z,99175.84
2018-02-10T18:18:47.052Z,99172.89
2018-02-10T18:21:14.627Z,99177.78
2018-02-10T18:23:42.203Z,99174.41
2018-02-10T18:26:09.818Z,99173.58
2018-02-10T18:28:37.397Z,99186.27
2018-02-10T18:31:04.977Z,99174.68
2018-02-10T18:33:33.127Z,99166.68
2018-02-10T18:36:00.707Z,99167.20
2018-02-10T18:38:28.273Z,99156.43
2018-02-10T18:40:56.012Z,99155.03
2018-02-10T18:43:23.577Z,99146.12
2018-02-10T18:45:51.340Z,99144.05
2018-02-10T18:48:19.018Z,99147.75
2018-02-10T18:50:46.667Z,99148.96
2018-02-10T18:53:14.245Z,99151.43
2018-02-10T18:55:41.834Z,99161.39
2018-02-10T18:58:09.412Z,99154.17
2018-02-10T19:00:36.986Z,99152.04
2018-02-10T19:03:04.610Z,99156.44
2018-02-10T19:05:32.176Z,99143.02
2018-02-10T19:07:59.735Z,99141.80
2018-02-10T19:10:27.421Z,99143.12
2018-02-10T19:12:54.983Z,99147.64
2018-02-10T19:15:22.545Z,99143.54
2018-02-10T19:17:50.140Z,99134.13
2018-02-10T19:20:17.712Z,99135.52
2018-02-10T19:22:45.257Z,99131.45
2018-02-10T19:25:12.881Z,99134.95
2018-02-10T19:27:40.595Z,99130.12
2018-02-10T19:30:08.190Z,99125.00
2018-02-10T19:32:35.818Z,99124.80
2018-02-10T19:35:03.410Z,99136.17
2018-02-10T19:37:30.972Z,99136.06
2018-02-10T19:39:58.566Z,99140.56
2018-02-10T19:42:26.119Z,99136.17
2018-02-10T19:44:53.768Z,99137.59
2018-02-10T19:47:21.345Z,99146.83
2018-02-10T19:49:48.910Z,99144.55
2018-02-10T19:52:16.500Z,99137.28
2018-02-10T19:54:44.099Z,99150.28
2018-02-10T19:57:11.738Z,99153.79
2018-02-10T19:59:39.308Z,99147.14
2018-02-10T20:02:06.939Z,99155.95
2018-02-10T20:04:34.561Z,99151.94
2018-02-10T20:07:02.138Z,99148.87
2018-02-10T20:09:29.753Z,99155.55
2018-02-10T20:11:57.337Z,99164.17
2018-02-10T20:14:24.948Z,99162.27
2018-02-10T20:16:52.546Z,99164.13
2018-02-10T20:19:21.124Z,99163.00
2018-02-10T20:21:48.788Z,99157.89
2018-02-10T20:24:16.373Z,99161.31
2018-02-10T20:26:43.973Z,99168.78
2018-02-10T20:29:11.528Z,99171.05
2018-02-10T20:31:40.040Z,99162.56
2018-02-10T20:34:07.696Z,99167.16
2018-02-10T20:36:35.266Z,99162.24
2018-02-10T20:39:02.891Z,99157.94
2018-02-10T20:41:30.447Z,99148.53
2018-02-10T20:43:58.007Z,99145.55
2018-02-10T20:46:25.643Z,99144.20
2018-02-10T20:48:53.205Z,99138.69
2018-02-10T20:51:20.755Z,99128.97
2018-02-10T20:53:48.356Z,99126.30
2018-02-10T20:56:16.049Z,99109.92
2018-02-10T20:58:43.606Z,99111.56
2018-02-10T21:01:11.208Z,99107.88
2018-02-10T21:03:38.755Z,99103.45
2018-02-10T21:06:06.320Z,99103.23
2018-02-10T21:08:33.924Z,99104.45
2018-02-10T21:11:01.489Z,99095.23
2018-02-10T21:13:29.051Z,99098.61
2018-02-10T21:15:56.655Z,99096.88
2018-02-10T21:18:24.292Z,99094.20
2018-02-10T21:20:51.855Z,99094.09
2018-02-10T21:23:19.461Z,99096.75
2018-02-10T21:25:47.678Z,99093.16
2018-02-10T21:28:15.283Z,99096.54
2018-02-10T21:30:42.837Z,99101.34
2018-02-10T21:33:16.302Z,99101.66
2018-02-10T21:35:43.859Z,99101.64
2018-02-10T21:38:11.404Z,99098.28
2018-02-10T21:40:38.999Z,99110.26
2018-02-10T21:43:06.563Z,99108.11
2018-02-10T21:45:34.155Z,99108.59
2018-02-10T21:48:01.743Z,99120.31
2018-02-10T21:50:29.324Z,99117.45
2018-02-10T21:52:56.884Z,99121.52
2018-02-10T21:55:24.493Z,99125.28
2018-02-10T21:57:52.058Z,99122.11
2018-02-10T22:00:19.645Z,99126.38
2018-02-10T22:02:47.248Z,99126.96
2018-02-10T22:05:14.807Z,99129.58
2018-02-10T22:07:42.357Z,99128.94
2018-02-10T22:10:09.932Z,99130.38
2018-02-10T22:12:37.499Z,99122.09
2018-02-10T22:15:05.110Z,99127.10
2018-02-10T22:17:32.720Z,99115.73
2018-02-10T22:20:00.297Z,99116.82
2018-02-10T22:22:27.869Z,99121.41
2018-02-10T22:24:55.456Z,99116.72
2018-02-10T22:27:23.024Z,99117.13
2018-02-10T22:29:50.583Z,99114.16
2018-02-10T22:32:18.185Z,99111.51
2018-02-10T22:34:45.772Z,99109.23
2018-02-10T22:37:13.329Z,99097.95
2018-02-10T22:39:40.931Z,99100.30
2018-02-10T22:42:08.511Z,99089.61
2018-02-10T22:44:36.073Z,99082.77
2018-02-10T22:47:03.680Z,99092.43
2018-02-10T22:49:31.245Z,99089.16
2018-02-10T22:51:58.802Z,99087.66
2018-02-10T22:54:26.411Z,99075.02
2018-02-10T22:56:53.974Z,99084.95
2018-02-10T22:59:21.526Z,99071.69
2018-02-10T23:01:49.133Z,99070.27
2018-02-10T23:04:16.712Z,99069.64
2018-02-10T23:06:44.277Z,99067.92
2018-02-10T23:09:11.881Z,99064.50
2018-02-10T23:11:39.456Z,99064.71
2018-02-10T23:14:07.026Z,99057.41
2018-02-10T23:16:34.625Z,99046.59
2018-02-10T23:19:02.202Z,99044.76
2018-02-10T23:21:29.754Z,99041.05
2018-02-10T23:23:57.438Z,99035.28
2018-02-10T23:26:25.038Z,99027.73
2018-02-10T23:28:52.605Z,99024.27
2018-02-10T23:31:20.226Z,99024.47
2018-02-10T23:33:47.779Z,99028.56
2018-02-10T23:36:15.331Z,99022.34
2018-02-10T23:38:42.928Z,99021.61
2018-02-10T23:41:10.483Z,99034.16
2018-02-10T23:43:38.030Z,99032.27
2018-02-10T23:46:05.619Z,99025.95
2018-02-10T23:48:33.154Z,99015.69
2018-02-10T23:51:00.720Z,99023.48
2018-02-10T23:53:28.423Z,99026.08
2018-02-10T23:55:55.988Z,99026.45
2018-02-10T23:58:23.547Z,99031.52
